Airport View

Enter AWOS ICAO identifier for current METAR.

ex. KFNL

KBZN 212356Z 16009KT 10SM CLR 12/06 A3004 RMK AO2 SLP167 60000 T01170061 10144 20094 58005

22 Sep 2019 00:12

Frequency: 135.425

Phone: 406-388-4882

Other Area AWOS: KLVM - KEKS - KHLN - KWYS

TAF KBZN 212326Z 2200/2306 VRB05KT P6SM FEW080 BKN100 FM221100 VRB03KT 6SM BR FEW002 SCT020 BKN040 FM221600 00000KT P6SM FEW080